sensor_id;sensor_type;location;lat;lon;timestamp;P1;durP1;ratioP1;P2;durP2;ratioP2
22113;SDS011;11223;49.968;9.062;2022-08-11T00:01:05;4.28;;;3.97;;
22113;SDS011;11223;49.968;9.062;2022-08-11T00:03:41;3.97;;;3.63;;
22113;SDS011;11223;49.968;9.062;2022-08-11T00:06:29;4.43;;;4.00;;
22113;SDS011;11223;49.968;9.062;2022-08-11T00:08:57;4.95;;;3.80;;
22113;SDS011;11223;49.968;9.062;2022-08-11T00:11:34;5.20;;;4.80;;
22113;SDS011;11223;49.968;9.062;2022-08-11T00:14:10;3.88;;;3.58;;
22113;SDS011;11223;49.968;9.062;2022-08-11T00:16:40;4.85;;;4.30;;
22113;SDS011;11223;49.968;9.062;2022-08-11T00:19:08;4.60;;;4.30;;
22113;SDS011;11223;49.968;9.062;2022-08-11T00:21:39;4.60;;;4.25;;
22113;SDS011;11223;49.968;9.062;2022-08-11T00:24:06;4.20;;;3.88;;
22113;SDS011;11223;49.968;9.062;2022-08-11T00:26:33;4.80;;;4.20;;
22113;SDS011;11223;49.968;9.062;2022-08-11T00:29:10;6.05;;;4.30;;
22113;SDS011;11223;49.968;9.062;2022-08-11T00:31:37;4.47;;;4.10;;
22113;SDS011;11223;49.968;9.062;2022-08-11T00:34:09;4.25;;;3.95;;
22113;SDS011;11223;49.968;9.062;2022-08-11T00:36:42;4.80;;;4.50;;
22113;SDS011;11223;49.968;9.062;2022-08-11T00:39:13;4.45;;;4.18;;
22113;SDS011;11223;49.968;9.062;2022-08-11T00:44:16;4.88;;;4.38;;
22113;SDS011;11223;49.968;9.062;2022-08-11T00:49:40;4.88;;;4.25;;
22113;SDS011;11223;49.968;9.062;2022-08-11T01:00:52;5.28;;;4.32;;
22113;SDS011;11223;49.968;9.062;2022-08-11T01:03:29;4.70;;;4.40;;
22113;SDS011;11223;49.968;9.062;2022-08-11T01:06:20;4.70;;;4.40;;
22113;SDS011;11223;49.968;9.062;2022-08-11T01:15:13;4.40;;;4.10;;
22113;SDS011;11223;49.968;9.062;2022-08-11T01:18:24;4.78;;;4.45;;
22113;SDS011;11223;49.968;9.062;2022-08-11T01:21:21;6.72;;;4.57;;
22113;SDS011;11223;49.968;9.062;2022-08-11T01:26:54;4.68;;;4.30;;
22113;SDS011;11223;49.968;9.062;2022-08-11T01:29:53;5.80;;;5.15;;
22113;SDS011;11223;49.968;9.062;2022-08-11T01:41:23;5.20;;;4.80;;
22113;SDS011;11223;49.968;9.062;2022-08-11T02:06:46;5.63;;;4.45;;
22113;SDS011;11223;49.968;9.062;2022-08-11T02:09:41;5.65;;;5.25;;
22113;SDS011;11223;49.968;9.062;2022-08-11T02:12:49;4.95;;;4.57;;
22113;SDS011;11223;49.968;9.062;2022-08-11T02:15:26;5.10;;;4.70;;
22113;SDS011;11223;49.968;9.062;2022-08-11T02:18:09;4.78;;;4.47;;
22113;SDS011;11223;49.968;9.062;2022-08-11T02:20:43;5.28;;;4.95;;
22113;SDS011;11223;49.968;9.062;2022-08-11T02:23:32;5.18;;;4.88;;
22113;SDS011;11223;49.968;9.062;2022-08-11T02:26:14;4.95;;;4.55;;
22113;SDS011;11223;49.968;9.062;2022-08-11T02:31:17;6.30;;;5.70;;
22113;SDS011;11223;49.968;9.062;2022-08-11T02:34:12;5.53;;;5.13;;
22113;SDS011;11223;49.968;9.062;2022-08-11T02:36:47;5.20;;;4.80;;
22113;SDS011;11223;49.968;9.062;2022-08-11T02:39:19;5.75;;;5.25;;
22113;SDS011;11223;49.968;9.062;2022-08-11T02:41:50;5.35;;;5.05;;
22113;SDS011;11223;49.968;9.062;2022-08-11T03:02:19;6.10;;;5.50;;
22113;SDS011;11223;49.968;9.062;2022-08-11T03:13:13;6.15;;;5.75;;
22113;SDS011;11223;49.968;9.062;2022-08-11T03:21:35;6.45;;;6.05;;
22113;SDS011;11223;49.968;9.062;2022-08-11T03:24:15;6.68;;;6.28;;
22113;SDS011;11223;49.968;9.062;2022-08-11T03:27:06;7.07;;;6.57;;
22113;SDS011;11223;49.968;9.062;2022-08-11T03:32:31;7.20;;;6.70;;
22113;SDS011;11223;49.968;9.062;2022-08-11T03:35:06;7.00;;;6.53;;
22113;SDS011;11223;49.968;9.062;2022-08-11T03:40:36;7.60;;;7.00;;
22113;SDS011;11223;49.968;9.062;2022-08-11T03:43:50;7.68;;;7.18;;
22113;SDS011;11223;49.968;9.062;2022-08-11T03:46:50;7.50;;;6.90;;
22113;SDS011;11223;49.968;9.062;2022-08-11T03:55:26;8.80;;;8.20;;
22113;SDS011;11223;49.968;9.062;2022-08-11T03:58:25;7.85;;;7.35;;
22113;SDS011;11223;49.968;9.062;2022-08-11T04:12:25;8.85;;;8.25;;
22113;SDS011;11223;49.968;9.062;2022-08-11T04:18:04;8.45;;;7.85;;
22113;SDS011;11223;49.968;9.062;2022-08-11T04:28:54;8.80;;;8.13;;
22113;SDS011;11223;49.968;9.062;2022-08-11T04:37:08;8.88;;;8.18;;
22113;SDS011;11223;49.968;9.062;2022-08-11T04:43:00;8.63;;;8.02;;
22113;SDS011;11223;49.968;9.062;2022-08-11T04:58:02;8.48;;;7.97;;
22113;SDS011;11223;49.968;9.062;2022-08-11T05:06:44;8.02;;;7.53;;
22113;SDS011;11223;49.968;9.062;2022-08-11T05:09:34;7.97;;;7.47;;
22113;SDS011;11223;49.968;9.062;2022-08-11T05:14:55;7.90;;;7.20;;
22113;SDS011;11223;49.968;9.062;2022-08-11T05:17:46;8.82;;;8.18;;
22113;SDS011;11223;49.968;9.062;2022-08-11T05:20:49;7.35;;;6.95;;
22113;SDS011;11223;49.968;9.062;2022-08-11T05:23:39;7.63;;;7.13;;
22113;SDS011;11223;49.968;9.062;2022-08-11T05:26:28;8.95;;;8.25;;
22113;SDS011;11223;49.968;9.062;2022-08-11T05:29:41;7.90;;;7.35;;
22113;SDS011;11223;49.968;9.062;2022-08-11T05:32:30;7.70;;;7.20;;
22113;SDS011;11223;49.968;9.062;2022-08-11T05:35:24;8.90;;;8.20;;
22113;SDS011;11223;49.968;9.062;2022-08-11T05:38:12;8.30;;;7.53;;
22113;SDS011;11223;49.968;9.062;2022-08-11T05:41:00;8.60;;;8.00;;
22113;SDS011;11223;49.968;9.062;2022-08-11T05:43:45;7.82;;;7.32;;
22113;SDS011;11223;49.968;9.062;2022-08-11T05:46:37;8.07;;;7.47;;
22113;SDS011;11223;49.968;9.062;2022-08-11T05:49:23;8.55;;;7.20;;
22113;SDS011;11223;49.968;9.062;2022-08-11T05:52:15;8.50;;;7.90;;
22113;SDS011;11223;49.968;9.062;2022-08-11T05:55:03;7.97;;;7.38;;
22113;SDS011;11223;49.968;9.062;2022-08-11T05:57:48;7.38;;;6.80;;
22113;SDS011;11223;49.968;9.062;2022-08-11T06:00:20;7.50;;;7.00;;
22113;SDS011;11223;49.968;9.062;2022-08-11T06:02:58;7.50;;;7.07;;
22113;SDS011;11223;49.968;9.062;2022-08-11T06:05:35;7.75;;;7.20;;
22113;SDS011;11223;49.968;9.062;2022-08-11T06:08:03;7.60;;;6.90;;
22113;SDS011;11223;49.968;9.062;2022-08-11T06:10:35;7.78;;;7.15;;
22113;SDS011;11223;49.968;9.062;2022-08-11T06:13:03;6.93;;;6.43;;
22113;SDS011;11223;49.968;9.062;2022-08-11T06:15:31;8.15;;;7.45;;
22113;SDS011;11223;49.968;9.062;2022-08-11T06:18:00;7.25;;;6.70;;
22113;SDS011;11223;49.968;9.062;2022-08-11T06:20:28;7.82;;;7.20;;
22113;SDS011;11223;49.968;9.062;2022-08-11T06:23:04;8.25;;;7.45;;
22113;SDS011;11223;49.968;9.062;2022-08-11T06:25:31;6.68;;;6.28;;
22113;SDS011;11223;49.968;9.062;2022-08-11T06:27:59;6.35;;;5.85;;
22113;SDS011;11223;49.968;9.062;2022-08-11T06:30:33;7.55;;;6.95;;
22113;SDS011;11223;49.968;9.062;2022-08-11T06:33:11;6.95;;;6.07;;
22113;SDS011;11223;49.968;9.062;2022-08-11T06:41:02;7.78;;;5.15;;
22113;SDS011;11223;49.968;9.062;2022-08-11T06:44:04;7.65;;;6.00;;
22113;SDS011;11223;49.968;9.062;2022-08-11T06:46:39;9.60;;;5.75;;
22113;SDS011;11223;49.968;9.062;2022-08-11T06:49:15;7.47;;;5.78;;
22113;SDS011;11223;49.968;9.062;2022-08-11T06:52:04;6.63;;;5.47;;
22113;SDS011;11223;49.968;9.062;2022-08-11T06:54:38;8.00;;;5.45;;
22113;SDS011;11223;49.968;9.062;2022-08-11T06:57:10;7.63;;;5.50;;
22113;SDS011;11223;49.968;9.062;2022-08-11T06:59:55;7.57;;;5.50;;
22113;SDS011;11223;49.968;9.062;2022-08-11T07:02:48;8.30;;;5.50;;
22113;SDS011;11223;49.968;9.062;2022-08-11T07:05:38;7.78;;;5.15;;
22113;SDS011;11223;49.968;9.062;2022-08-11T07:08:32;11.00;;;5.75;;
22113;SDS011;11223;49.968;9.062;2022-08-11T07:11:45;8.60;;;5.20;;
22113;SDS011;11223;49.968;9.062;2022-08-11T07:14:38;6.03;;;4.90;;
22113;SDS011;11223;49.968;9.062;2022-08-11T07:17:29;6.07;;;4.80;;
22113;SDS011;11223;49.968;9.062;2022-08-11T07:19:59;4.88;;;4.40;;
22113;SDS011;11223;49.968;9.062;2022-08-11T07:22:49;4.85;;;4.40;;
22113;SDS011;11223;49.968;9.062;2022-08-11T07:25:40;6.35;;;4.75;;
22113;SDS011;11223;49.968;9.062;2022-08-11T07:28:27;6.28;;;4.55;;
22113;SDS011;11223;49.968;9.062;2022-08-11T07:31:13;5.13;;;3.40;;
22113;SDS011;11223;49.968;9.062;2022-08-11T07:33:50;4.15;;;3.65;;
22113;SDS011;11223;49.968;9.062;2022-08-11T07:36:22;5.65;;;3.65;;
22113;SDS011;11223;49.968;9.062;2022-08-11T07:38:52;4.65;;;3.65;;
22113;SDS011;11223;49.968;9.062;2022-08-11T07:41:21;3.83;;;3.53;;
22113;SDS011;11223;49.968;9.062;2022-08-11T07:43:50;5.60;;;3.75;;
22113;SDS011;11223;49.968;9.062;2022-08-11T07:46:19;5.32;;;4.40;;
22113;SDS011;11223;49.968;9.062;2022-08-11T07:49:09;4.53;;;3.30;;
22113;SDS011;11223;49.968;9.062;2022-08-11T07:51:54;4.15;;;3.78;;
22113;SDS011;11223;49.968;9.062;2022-08-11T07:54:39;5.47;;;3.60;;
22113;SDS011;11223;49.968;9.062;2022-08-11T07:57:07;3.60;;;3.30;;
22113;SDS011;11223;49.968;9.062;2022-08-11T07:59:52;3.92;;;3.30;;
22113;SDS011;11223;49.968;9.062;2022-08-11T08:02:37;5.07;;;3.72;;
22113;SDS011;11223;49.968;9.062;2022-08-11T08:05:22;5.87;;;2.80;;
22113;SDS011;11223;49.968;9.062;2022-08-11T08:08:07;3.50;;;3.20;;
22113;SDS011;11223;49.968;9.062;2022-08-11T08:10:53;5.50;;;3.60;;
22113;SDS011;11223;49.968;9.062;2022-08-11T08:13:38;4.13;;;3.73;;
22113;SDS011;11223;49.968;9.062;2022-08-11T08:16:23;4.90;;;2.90;;
22113;SDS011;11223;49.968;9.062;2022-08-11T08:19:11;5.63;;;3.23;;
22113;SDS011;11223;49.968;9.062;2022-08-11T08:21:40;4.60;;;3.20;;
22113;SDS011;11223;49.968;9.062;2022-08-11T08:24:07;4.50;;;3.20;;
22113;SDS011;11223;49.968;9.062;2022-08-11T08:26:34;4.17;;;3.50;;
22113;SDS011;11223;49.968;9.062;2022-08-11T08:29:18;4.43;;;4.03;;
22113;SDS011;11223;49.968;9.062;2022-08-11T08:32:03;4.00;;;3.13;;
22113;SDS011;11223;49.968;9.062;2022-08-11T08:34:29;4.57;;;3.57;;
22113;SDS011;11223;49.968;9.062;2022-08-11T08:36:55;4.10;;;3.63;;
22113;SDS011;11223;49.968;9.062;2022-08-11T08:39:21;3.37;;;3.07;;
22113;SDS011;11223;49.968;9.062;2022-08-11T08:41:54;5.13;;;3.40;;
22113;SDS011;11223;49.968;9.062;2022-08-11T08:44:22;3.60;;;3.30;;
22113;SDS011;11223;49.968;9.062;2022-08-11T08:46:50;3.80;;;2.93;;
22113;SDS011;11223;49.968;9.062;2022-08-11T08:49:30;3.53;;;3.23;;
22113;SDS011;11223;49.968;9.062;2022-08-11T08:52:08;3.23;;;2.90;;
22113;SDS011;11223;49.968;9.062;2022-08-11T08:54:38;4.23;;;3.10;;
22113;SDS011;11223;49.968;9.062;2022-08-11T08:57:08;3.40;;;3.10;;
22113;SDS011;11223;49.968;9.062;2022-08-11T08:59:39;3.73;;;3.10;;
22113;SDS011;11223;49.968;9.062;2022-08-11T09:02:07;3.57;;;3.30;;
22113;SDS011;11223;49.968;9.062;2022-08-11T09:04:37;5.90;;;2.10;;
22113;SDS011;11223;49.968;9.062;2022-08-11T09:07:15;2.90;;;2.70;;
22113;SDS011;11223;49.968;9.062;2022-08-11T09:09:42;2.37;;;2.10;;
22113;SDS011;11223;49.968;9.062;2022-08-11T09:12:11;3.33;;;2.47;;
22113;SDS011;11223;49.968;9.062;2022-08-11T09:14:38;5.40;;;3.00;;
22113;SDS011;11223;49.968;9.062;2022-08-11T09:17:24;2.93;;;2.73;;
22113;SDS011;11223;49.968;9.062;2022-08-11T09:19:54;2.37;;;2.27;;
22113;SDS011;11223;49.968;9.062;2022-08-11T09:22:31;5.80;;;2.53;;
22113;SDS011;11223;49.968;9.062;2022-08-11T09:25:20;3.70;;;2.80;;
22113;SDS011;11223;49.968;9.062;2022-08-11T09:28:11;4.23;;;2.93;;
22113;SDS011;11223;49.968;9.062;2022-08-11T09:30:46;4.10;;;2.53;;
22113;SDS011;11223;49.968;9.062;2022-08-11T09:33:19;2.70;;;2.50;;
22113;SDS011;11223;49.968;9.062;2022-08-11T09:35:46;2.27;;;2.07;;
22113;SDS011;11223;49.968;9.062;2022-08-11T09:38:15;4.07;;;2.80;;
22113;SDS011;11223;49.968;9.062;2022-08-11T09:41:02;3.10;;;2.90;;
22113;SDS011;11223;49.968;9.062;2022-08-11T09:43:29;2.47;;;2.27;;
22113;SDS011;11223;49.968;9.062;2022-08-11T09:46:15;3.40;;;2.20;;
22113;SDS011;11223;49.968;9.062;2022-08-11T09:48:46;3.10;;;2.67;;
22113;SDS011;11223;49.968;9.062;2022-08-11T09:51:12;5.20;;;3.13;;
22113;SDS011;11223;49.968;9.062;2022-08-11T09:53:40;3.30;;;2.43;;
22113;SDS011;11223;49.968;9.062;2022-08-11T09:56:25;3.13;;;2.93;;
22113;SDS011;11223;49.968;9.062;2022-08-11T09:59:11;3.03;;;2.60;;
22113;SDS011;11223;49.968;9.062;2022-08-11T10:01:42;4.37;;;3.33;;
22113;SDS011;11223;49.968;9.062;2022-08-11T10:04:14;3.20;;;2.83;;
22113;SDS011;11223;49.968;9.062;2022-08-11T10:06:44;2.90;;;2.70;;
22113;SDS011;11223;49.968;9.062;2022-08-11T10:09:27;6.60;;;3.67;;
22113;SDS011;11223;49.968;9.062;2022-08-11T10:11:59;5.00;;;2.93;;
22113;SDS011;11223;49.968;9.062;2022-08-11T10:14:27;3.60;;;3.30;;
22113;SDS011;11223;49.968;9.062;2022-08-11T10:17:13;11.13;;;3.23;;
22113;SDS011;11223;49.968;9.062;2022-08-11T10:19:42;3.17;;;2.87;;
22113;SDS011;11223;49.968;9.062;2022-08-11T10:22:11;3.50;;;2.87;;
22113;SDS011;11223;49.968;9.062;2022-08-11T10:24:58;2.70;;;2.50;;
22113;SDS011;11223;49.968;9.062;2022-08-11T10:27:44;3.03;;;2.83;;
22113;SDS011;11223;49.968;9.062;2022-08-11T10:30:10;3.77;;;3.40;;
22113;SDS011;11223;49.968;9.062;2022-08-11T10:32:55;3.60;;;3.20;;
22113;SDS011;11223;49.968;9.062;2022-08-11T10:35:41;3.47;;;3.27;;
22113;SDS011;11223;49.968;9.062;2022-08-11T10:38:09;2.90;;;2.70;;
22113;SDS011;11223;49.968;9.062;2022-08-11T10:40:38;3.00;;;2.80;;
22113;SDS011;11223;49.968;9.062;2022-08-11T10:43:05;3.30;;;3.10;;
22113;SDS011;11223;49.968;9.062;2022-08-11T10:45:52;3.50;;;2.60;;
22113;SDS011;11223;49.968;9.062;2022-08-11T10:48:36;3.07;;;2.87;;
22113;SDS011;11223;49.968;9.062;2022-08-11T10:51:04;4.63;;;3.17;;
22113;SDS011;11223;49.968;9.062;2022-08-11T10:53:38;4.07;;;2.93;;
22113;SDS011;11223;49.968;9.062;2022-08-11T10:56:26;3.77;;;3.40;;
22113;SDS011;11223;49.968;9.062;2022-08-11T10:59:13;6.43;;;3.20;;
22113;SDS011;11223;49.968;9.062;2022-08-11T11:01:40;3.93;;;2.83;;
22113;SDS011;11223;49.968;9.062;2022-08-11T11:04:12;5.40;;;3.30;;
22113;SDS011;11223;49.968;9.062;2022-08-11T11:06:58;4.37;;;3.10;;
22113;SDS011;11223;49.968;9.062;2022-08-11T11:09:29;3.27;;;2.97;;
22113;SDS011;11223;49.968;9.062;2022-08-11T11:12:19;3.13;;;2.67;;
22113;SDS011;11223;49.968;9.062;2022-08-11T11:15:07;4.80;;;2.60;;
22113;SDS011;11223;49.968;9.062;2022-08-11T11:17:58;3.70;;;3.17;;
22113;SDS011;11223;49.968;9.062;2022-08-11T11:37:37;3.50;;;3.20;;
22113;SDS011;11223;49.968;9.062;2022-08-11T11:40:10;3.33;;;3.13;;
22113;SDS011;11223;49.968;9.062;2022-08-11T11:42:38;3.40;;;3.20;;
22113;SDS011;11223;49.968;9.062;2022-08-11T11:45:05;3.40;;;3.20;;
22113;SDS011;11223;49.968;9.062;2022-08-11T11:47:32;3.40;;;3.10;;
22113;SDS011;11223;49.968;9.062;2022-08-11T11:50:01;3.37;;;3.07;;
22113;SDS011;11223;49.968;9.062;2022-08-11T11:52:27;3.50;;;3.00;;
22113;SDS011;11223;49.968;9.062;2022-08-11T11:54:54;3.57;;;3.03;;
22113;SDS011;11223;49.968;9.062;2022-08-11T11:57:21;3.23;;;2.63;;
22113;SDS011;11223;49.968;9.062;2022-08-11T12:00:08;4.80;;;2.87;;
22113;SDS011;11223;49.968;9.062;2022-08-11T12:03:00;3.40;;;3.10;;
22113;SDS011;11223;49.968;9.062;2022-08-11T12:05:28;3.10;;;2.60;;
22113;SDS011;11223;49.968;9.062;2022-08-11T12:07:57;13.93;;;3.33;;
22113;SDS011;11223;49.968;9.062;2022-08-11T12:10:39;2.93;;;2.73;;
22113;SDS011;11223;49.968;9.062;2022-08-11T12:13:34;3.90;;;2.40;;
22113;SDS011;11223;49.968;9.062;2022-08-11T12:16:08;3.70;;;3.40;;
22113;SDS011;11223;49.968;9.062;2022-08-11T12:18:35;3.33;;;2.50;;
22113;SDS011;11223;49.968;9.062;2022-08-11T12:21:02;3.67;;;3.10;;
22113;SDS011;11223;49.968;9.062;2022-08-11T12:23:28;4.00;;;3.30;;
22113;SDS011;11223;49.968;9.062;2022-08-11T12:26:15;3.43;;;2.63;;
22113;SDS011;11223;49.968;9.062;2022-08-11T12:29:01;3.50;;;2.50;;
22113;SDS011;11223;49.968;9.062;2022-08-11T12:31:29;3.13;;;2.93;;
22113;SDS011;11223;49.968;9.062;2022-08-11T12:34:03;3.73;;;2.50;;
22113;SDS011;11223;49.968;9.062;2022-08-11T12:36:32;3.43;;;2.83;;
22113;SDS011;11223;49.968;9.062;2022-08-11T12:39:00;2.93;;;2.43;;
22113;SDS011;11223;49.968;9.062;2022-08-11T12:41:29;2.70;;;2.50;;
22113;SDS011;11223;49.968;9.062;2022-08-11T12:44:15;3.73;;;2.40;;
22113;SDS011;11223;49.968;9.062;2022-08-11T12:47:00;3.30;;;3.00;;
22113;SDS011;11223;49.968;9.062;2022-08-11T12:49:27;2.40;;;2.20;;
22113;SDS011;11223;49.968;9.062;2022-08-11T12:52:18;2.70;;;2.50;;
22113;SDS011;11223;49.968;9.062;2022-08-11T12:54:54;2.80;;;2.60;;
22113;SDS011;11223;49.968;9.062;2022-08-11T13:00:15;3.10;;;2.20;;
22113;SDS011;11223;49.968;9.062;2022-08-11T13:03:01;3.20;;;3.00;;
22113;SDS011;11223;49.968;9.062;2022-08-11T13:05:47;3.30;;;2.50;;
22113;SDS011;11223;49.968;9.062;2022-08-11T13:08:15;2.93;;;2.30;;
22113;SDS011;11223;49.968;9.062;2022-08-11T13:10:42;2.60;;;2.40;;
22113;SDS011;11223;49.968;9.062;2022-08-11T13:13:28;6.33;;;3.13;;
22113;SDS011;11223;49.968;9.062;2022-08-11T13:15:55;2.97;;;2.77;;
22113;SDS011;11223;49.968;9.062;2022-08-11T13:18:23;2.87;;;2.67;;
22113;SDS011;11223;49.968;9.062;2022-08-11T13:20:54;4.57;;;2.80;;
22113;SDS011;11223;49.968;9.062;2022-08-11T13:23:21;3.93;;;2.47;;
22113;SDS011;11223;49.968;9.062;2022-08-11T13:25:50;2.50;;;2.13;;
22113;SDS011;11223;49.968;9.062;2022-08-11T13:28:19;2.80;;;2.60;;
22113;SDS011;11223;49.968;9.062;2022-08-11T13:30:46;2.50;;;2.37;;
22113;SDS011;11223;49.968;9.062;2022-08-11T13:33:33;3.10;;;2.47;;
22113;SDS011;11223;49.968;9.062;2022-08-11T13:36:00;4.90;;;2.53;;
22113;SDS011;11223;49.968;9.062;2022-08-11T13:38:27;3.00;;;2.80;;
22113;SDS011;11223;49.968;9.062;2022-08-11T13:40:53;2.70;;;2.50;;
22113;SDS011;11223;49.968;9.062;2022-08-11T13:43:20;4.70;;;2.40;;
22113;SDS011;11223;49.968;9.062;2022-08-11T13:45:47;4.60;;;2.27;;
22113;SDS011;11223;49.968;9.062;2022-08-11T13:48:14;4.50;;;2.90;;
22113;SDS011;11223;49.968;9.062;2022-08-11T13:50:41;3.57;;;2.57;;
22113;SDS011;11223;49.968;9.062;2022-08-11T13:53:28;2.83;;;2.63;;
22113;SDS011;11223;49.968;9.062;2022-08-11T13:55:56;5.37;;;2.40;;
22113;SDS011;11223;49.968;9.062;2022-08-11T13:58:24;2.83;;;2.63;;
22113;SDS011;11223;49.968;9.062;2022-08-11T14:00:50;8.67;;;3.07;;
22113;SDS011;11223;49.968;9.062;2022-08-11T14:03:22;2.63;;;2.33;;
22113;SDS011;11223;49.968;9.062;2022-08-11T14:05:51;2.90;;;2.67;;
22113;SDS011;11223;49.968;9.062;2022-08-11T14:08:22;2.60;;;2.40;;
22113;SDS011;11223;49.968;9.062;2022-08-11T14:10:50;3.10;;;2.30;;
22113;SDS011;11223;49.968;9.062;2022-08-11T14:13:38;2.93;;;2.63;;
22113;SDS011;11223;49.968;9.062;2022-08-11T14:16:08;2.63;;;2.20;;
22113;SDS011;11223;49.968;9.062;2022-08-11T14:18:47;3.73;;;2.67;;
22113;SDS011;11223;49.968;9.062;2022-08-11T14:21:16;2.47;;;2.27;;
22113;SDS011;11223;49.968;9.062;2022-08-11T14:24:01;3.70;;;2.70;;
22113;SDS011;11223;49.968;9.062;2022-08-11T14:26:28;3.20;;;2.73;;
22113;SDS011;11223;49.968;9.062;2022-08-11T14:29:01;2.77;;;2.57;;
22113;SDS011;11223;49.968;9.062;2022-08-11T14:31:34;3.17;;;2.90;;
22113;SDS011;11223;49.968;9.062;2022-08-11T14:34:04;4.57;;;2.67;;
22113;SDS011;11223;49.968;9.062;2022-08-11T14:36:39;3.00;;;2.70;;
22113;SDS011;11223;49.968;9.062;2022-08-11T14:39:12;7.13;;;3.10;;
22113;SDS011;11223;49.968;9.062;2022-08-11T14:41:45;3.30;;;3.00;;
22113;SDS011;11223;49.968;9.062;2022-08-11T14:44:31;3.43;;;2.80;;
22113;SDS011;11223;49.968;9.062;2022-08-11T14:47:18;3.30;;;3.00;;
22113;SDS011;11223;49.968;9.062;2022-08-11T14:49:44;4.30;;;2.70;;
22113;SDS011;11223;49.968;9.062;2022-08-11T14:52:14;4.97;;;2.97;;
22113;SDS011;11223;49.968;9.062;2022-08-11T14:54:44;4.03;;;2.80;;
22113;SDS011;11223;49.968;9.062;2022-08-11T14:57:32;3.13;;;2.93;;
22113;SDS011;11223;49.968;9.062;2022-08-11T15:00:02;3.20;;;2.90;;
22113;SDS011;11223;49.968;9.062;2022-08-11T15:02:30;3.40;;;3.10;;
22113;SDS011;11223;49.968;9.062;2022-08-11T15:05:19;4.70;;;2.67;;
22113;SDS011;11223;49.968;9.062;2022-08-11T15:07:46;2.80;;;2.60;;
22113;SDS011;11223;49.968;9.062;2022-08-11T15:10:12;4.43;;;2.63;;
22113;SDS011;11223;49.968;9.062;2022-08-11T15:12:40;3.30;;;2.60;;
22113;SDS011;11223;49.968;9.062;2022-08-11T15:15:06;5.80;;;3.10;;
22113;SDS011;11223;49.968;9.062;2022-08-11T15:17:53;3.10;;;2.63;;
22113;SDS011;11223;49.968;9.062;2022-08-11T15:20:20;2.87;;;2.67;;
22113;SDS011;11223;49.968;9.062;2022-08-11T15:23:06;2.47;;;2.27;;
22113;SDS011;11223;49.968;9.062;2022-08-11T15:26:51;4.10;;;2.70;;
22113;SDS011;11223;49.968;9.062;2022-08-11T15:29:09;3.73;;;2.53;;
22113;SDS011;11223;49.968;9.062;2022-08-11T15:31:57;4.20;;;2.87;;
22113;SDS011;11223;49.968;9.062;2022-08-11T15:34:41;3.40;;;2.87;;
22113;SDS011;11223;49.968;9.062;2022-08-11T15:37:30;3.13;;;2.80;;
22113;SDS011;11223;49.968;9.062;2022-08-11T15:42:48;2.73;;;2.50;;
22113;SDS011;11223;49.968;9.062;2022-08-11T15:45:33;4.00;;;2.77;;
22113;SDS011;11223;49.968;9.062;2022-08-11T15:48:14;7.00;;;2.93;;
22113;SDS011;11223;49.968;9.062;2022-08-11T15:50:45;3.97;;;2.43;;
22113;SDS011;11223;49.968;9.062;2022-08-11T15:53:19;3.10;;;2.80;;
22113;SDS011;11223;49.968;9.062;2022-08-11T15:56:02;3.10;;;2.87;;
22113;SDS011;11223;49.968;9.062;2022-08-11T15:58:32;3.83;;;2.60;;
22113;SDS011;11223;49.968;9.062;2022-08-11T16:01:21;5.23;;;2.57;;
22113;SDS011;11223;49.968;9.062;2022-08-11T16:04:09;2.93;;;2.50;;
22113;SDS011;11223;49.968;9.062;2022-08-11T16:09:09;5.23;;;2.83;;
22113;SDS011;11223;49.968;9.062;2022-08-11T16:11:37;3.57;;;2.63;;
22113;SDS011;11223;49.968;9.062;2022-08-11T16:14:05;2.73;;;2.37;;
22113;SDS011;11223;49.968;9.062;2022-08-11T16:16:50;3.03;;;2.70;;
22113;SDS011;11223;49.968;9.062;2022-08-11T16:19:17;2.53;;;2.33;;
22113;SDS011;11223;49.968;9.062;2022-08-11T16:21:44;2.70;;;2.50;;
22113;SDS011;11223;49.968;9.062;2022-08-11T16:24:14;3.30;;;2.80;;
22113;SDS011;11223;49.968;9.062;2022-08-11T16:26:43;5.50;;;2.60;;
22113;SDS011;11223;49.968;9.062;2022-08-11T16:29:09;4.60;;;2.87;;
22113;SDS011;11223;49.968;9.062;2022-08-11T16:31:35;2.77;;;2.57;;
22113;SDS011;11223;49.968;9.062;2022-08-11T16:34:03;3.10;;;2.50;;
22113;SDS011;11223;49.968;9.062;2022-08-11T16:36:50;4.57;;;2.27;;
22113;SDS011;11223;49.968;9.062;2022-08-11T16:39:34;2.70;;;2.50;;
22113;SDS011;11223;49.968;9.062;2022-08-11T16:42:00;3.50;;;3.00;;
22113;SDS011;11223;49.968;9.062;2022-08-11T16:44:45;2.90;;;2.70;;
22113;SDS011;11223;49.968;9.062;2022-08-11T16:47:29;3.43;;;2.03;;
22113;SDS011;11223;49.968;9.062;2022-08-11T16:49:55;2.90;;;2.60;;
22113;SDS011;11223;49.968;9.062;2022-08-11T16:52:22;5.87;;;2.60;;
22113;SDS011;11223;49.968;9.062;2022-08-11T16:54:48;4.70;;;2.83;;
22113;SDS011;11223;49.968;9.062;2022-08-11T16:57:16;3.07;;;2.87;;
22113;SDS011;11223;49.968;9.062;2022-08-11T17:00:05;5.50;;;3.07;;
22113;SDS011;11223;49.968;9.062;2022-08-11T17:02:36;4.27;;;2.50;;
22113;SDS011;11223;49.968;9.062;2022-08-11T17:05:25;2.80;;;2.60;;
22113;SDS011;11223;49.968;9.062;2022-08-11T17:08:10;3.67;;;2.17;;
22113;SDS011;11223;49.968;9.062;2022-08-11T17:10:58;5.73;;;2.90;;
22113;SDS011;11223;49.968;9.062;2022-08-11T17:13:58;2.90;;;2.40;;
22113;SDS011;11223;49.968;9.062;2022-08-11T17:16:31;2.80;;;2.60;;
22113;SDS011;11223;49.968;9.062;2022-08-11T17:19:00;2.80;;;2.60;;
22113;SDS011;11223;49.968;9.062;2022-08-11T17:21:32;5.00;;;2.73;;
22113;SDS011;11223;49.968;9.062;2022-08-11T17:24:21;2.73;;;2.53;;
22113;SDS011;11223;49.968;9.062;2022-08-11T17:26:51;2.90;;;2.63;;
22113;SDS011;11223;49.968;9.062;2022-08-11T17:29:20;4.57;;;2.30;;
22113;SDS011;11223;49.968;9.062;2022-08-11T17:31:56;7.07;;;2.57;;
22113;SDS011;11223;49.968;9.062;2022-08-11T17:34:44;2.83;;;2.60;;
22113;SDS011;11223;49.968;9.062;2022-08-11T17:37:30;2.90;;;2.60;;
22113;SDS011;11223;49.968;9.062;2022-08-11T17:39:57;3.83;;;3.47;;
22113;SDS011;11223;49.968;9.062;2022-08-11T17:42:26;5.43;;;2.60;;
22113;SDS011;11223;49.968;9.062;2022-08-11T17:45:13;5.30;;;3.17;;
22113;SDS011;11223;49.968;9.062;2022-08-11T17:47:59;2.87;;;2.67;;
22113;SDS011;11223;49.968;9.062;2022-08-11T17:50:44;2.50;;;2.30;;
22113;SDS011;11223;49.968;9.062;2022-08-11T17:53:11;7.90;;;2.90;;
22113;SDS011;11223;49.968;9.062;2022-08-11T17:55:57;4.57;;;2.87;;
22113;SDS011;11223;49.968;9.062;2022-08-11T17:58:42;5.73;;;2.90;;
22113;SDS011;11223;49.968;9.062;2022-08-11T18:01:27;3.40;;;2.30;;
22113;SDS011;11223;49.968;9.062;2022-08-11T18:03:57;3.77;;;2.73;;
22113;SDS011;11223;49.968;9.062;2022-08-11T18:06:25;2.63;;;2.43;;
22113;SDS011;11223;49.968;9.062;2022-08-11T18:08:53;4.27;;;2.50;;
22113;SDS011;11223;49.968;9.062;2022-08-11T18:11:39;3.27;;;3.07;;
22113;SDS011;11223;49.968;9.062;2022-08-11T18:14:24;3.80;;;2.67;;
22113;SDS011;11223;49.968;9.062;2022-08-11T18:17:09;3.57;;;2.90;;
22113;SDS011;11223;49.968;9.062;2022-08-11T18:19:53;2.50;;;2.30;;
22113;SDS011;11223;49.968;9.062;2022-08-11T18:22:39;3.20;;;3.00;;
22113;SDS011;11223;49.968;9.062;2022-08-11T18:25:31;3.37;;;3.07;;
22113;SDS011;11223;49.968;9.062;2022-08-11T18:28:20;3.73;;;2.97;;
22113;SDS011;11223;49.968;9.062;2022-08-11T18:31:10;2.80;;;2.60;;
22113;SDS011;11223;49.968;9.062;2022-08-11T18:33:56;7.33;;;2.40;;
22113;SDS011;11223;49.968;9.062;2022-08-11T18:36:48;3.43;;;2.67;;
22113;SDS011;11223;49.968;9.062;2022-08-11T18:39:41;7.80;;;2.53;;
22113;SDS011;11223;49.968;9.062;2022-08-11T18:42:30;3.03;;;2.83;;
22113;SDS011;11223;49.968;9.062;2022-08-11T18:45:15;2.90;;;2.70;;
22113;SDS011;11223;49.968;9.062;2022-08-11T18:48:03;5.97;;;3.23;;
22113;SDS011;11223;49.968;9.062;2022-08-11T18:50:54;4.40;;;3.67;;
22113;SDS011;11223;49.968;9.062;2022-08-11T18:53:42;4.40;;;2.97;;
22113;SDS011;11223;49.968;9.062;2022-08-11T18:56:29;4.67;;;2.80;;